sensor_id;sensor_type;location;lat;lon;timestamp;pressure;altitude;pressure_sealevel;temperature;humidity
5062;BME280;2351;50.812;12.872;2023-04-06T00:00:34;98268.19;;;0.34;69.51
5062;BME280;2351;50.812;12.872;2023-04-06T00:03:06;98269.81;;;0.37;69.70
5062;BME280;2351;50.812;12.872;2023-04-06T00:05:38;98269.75;;;0.38;69.77
5062;BME280;2351;50.812;12.872;2023-04-06T00:08:10;98274.97;;;0.38;69.38
5062;BME280;2351;50.812;12.872;2023-04-06T00:10:42;98264.56;;;0.38;69.64
5062;BME280;2351;50.812;12.872;2023-04-06T00:13:14;98268.00;;;0.39;69.98
5062;BME280;2351;50.812;12.872;2023-04-06T00:15:47;98262.00;;;0.37;69.75
5062;BME280;2351;50.812;12.872;2023-04-06T00:18:19;98262.84;;;0.37;70.35
5062;BME280;2351;50.812;12.872;2023-04-06T00:20:51;98254.94;;;0.40;70.82
5062;BME280;2351;50.812;12.872;2023-04-06T00:23:23;98250.50;;;0.42;70.53
5062;BME280;2351;50.812;12.872;2023-04-06T00:25:55;98259.94;;;0.45;70.22
5062;BME280;2351;50.812;12.872;2023-04-06T00:28:27;98254.63;;;0.48;71.03
5062;BME280;2351;50.812;12.872;2023-04-06T00:31:01;98252.81;;;0.50;70.29
5062;BME280;2351;50.812;12.872;2023-04-06T00:33:33;98253.72;;;0.49;70.67
5062;BME280;2351;50.812;12.872;2023-04-06T00:36:05;98250.34;;;0.45;70.67
5062;BME280;2351;50.812;12.872;2023-04-06T00:38:37;98252.25;;;0.42;71.07
5062;BME280;2351;50.812;12.872;2023-04-06T00:41:09;98251.56;;;0.37;71.57
5062;BME280;2351;50.812;12.872;2023-04-06T00:43:42;98242.97;;;0.35;70.72
5062;BME280;2351;50.812;12.872;2023-04-06T00:46:15;98258.59;;;0.35;71.29
5062;BME280;2351;50.812;12.872;2023-04-06T00:48:47;98247.22;;;0.37;71.25
5062;BME280;2351;50.812;12.872;2023-04-06T00:51:18;98250.63;;;0.39;71.27
5062;BME280;2351;50.812;12.872;2023-04-06T00:53:50;98255.75;;;0.41;71.30
5062;BME280;2351;50.812;12.872;2023-04-06T00:56:22;98251.34;;;0.43;71.69
5062;BME280;2351;50.812;12.872;2023-04-06T00:58:56;98250.50;;;0.42;71.66
5062;BME280;2351;50.812;12.872;2023-04-06T01:01:29;98249.53;;;0.45;71.66
5062;BME280;2351;50.812;12.872;2023-04-06T01:04:02;98252.00;;;0.48;71.87
5062;BME280;2351;50.812;12.872;2023-04-06T01:06:34;98247.72;;;0.47;72.63
5062;BME280;2351;50.812;12.872;2023-04-06T01:09:06;98243.53;;;0.43;72.72
5062;BME280;2351;50.812;12.872;2023-04-06T01:11:38;98241.13;;;0.38;72.18
5062;BME280;2351;50.812;12.872;2023-04-06T01:14:10;98237.75;;;0.35;72.61
5062;BME280;2351;50.812;12.872;2023-04-06T01:16:43;98242.97;;;0.35;72.59
5062;BME280;2351;50.812;12.872;2023-04-06T01:19:15;98249.88;;;0.36;72.58
5062;BME280;2351;50.812;12.872;2023-04-06T01:21:47;98244.63;;;0.37;73.03
5062;BME280;2351;50.812;12.872;2023-04-06T01:24:22;98251.53;;;0.38;73.15
5062;BME280;2351;50.812;12.872;2023-04-06T01:26:54;98250.75;;;0.36;72.97
5062;BME280;2351;50.812;12.872;2023-04-06T01:29:26;98243.84;;;0.35;73.62
5062;BME280;2351;50.812;12.872;2023-04-06T01:31:58;98237.75;;;0.35;73.29
5062;BME280;2351;50.812;12.872;2023-04-06T01:34:30;98244.63;;;0.37;73.62
5062;BME280;2351;50.812;12.872;2023-04-06T01:37:02;98237.66;;;0.38;73.04
5062;BME280;2351;50.812;12.872;2023-04-06T01:39:35;98241.00;;;0.41;73.34
5062;BME280;2351;50.812;12.872;2023-04-06T01:42:07;98244.38;;;0.43;73.51
5062;BME280;2351;50.812;12.872;2023-04-06T01:44:39;98237.34;;;0.45;73.83
5062;BME280;2351;50.812;12.872;2023-04-06T01:47:11;98236.44;;;0.47;74.16
5062;BME280;2351;50.812;12.872;2023-04-06T01:49:43;98235.47;;;0.49;73.95
5062;BME280;2351;50.812;12.872;2023-04-06T01:52:14;98234.56;;;0.50;73.72
5062;BME280;2351;50.812;12.872;2023-04-06T01:54:48;98233.66;;;0.51;74.31
5062;BME280;2351;50.812;12.872;2023-04-06T01:57:20;98229.34;;;0.50;74.33
5062;BME280;2351;50.812;12.872;2023-04-06T01:59:51;98226.75;;;0.50;73.79
5062;BME280;2351;50.812;12.872;2023-04-06T02:02:23;98231.97;;;0.50;74.34
5062;BME280;2351;50.812;12.872;2023-04-06T02:04:55;98229.41;;;0.49;73.97
5062;BME280;2351;50.812;12.872;2023-04-06T02:07:27;98232.91;;;0.48;74.64
5062;BME280;2351;50.812;12.872;2023-04-06T02:10:00;98235.53;;;0.48;74.83
5062;BME280;2351;50.812;12.872;2023-04-06T02:12:32;98229.53;;;0.45;74.49
5062;BME280;2351;50.812;12.872;2023-04-06T02:15:05;98227.91;;;0.43;75.21
5062;BME280;2351;50.812;12.872;2023-04-06T02:17:36;98222.88;;;0.38;74.86
5062;BME280;2351;50.812;12.872;2023-04-06T02:20:09;98215.97;;;0.37;76.60
5062;BME280;2351;50.812;12.872;2023-04-06T02:22:41;98221.06;;;0.40;76.28
5062;BME280;2351;50.812;12.872;2023-04-06T02:25:14;98221.78;;;0.44;76.25
5062;BME280;2351;50.812;12.872;2023-04-06T02:27:46;98213.06;;;0.45;75.99
5062;BME280;2351;50.812;12.872;2023-04-06T02:30:18;98220.78;;;0.47;75.96
5062;BME280;2351;50.812;12.872;2023-04-06T02:32:50;98225.19;;;0.46;76.18
5062;BME280;2351;50.812;12.872;2023-04-06T02:35:22;98216.50;;;0.45;76.79
5062;BME280;2351;50.812;12.872;2023-04-06T02:37:54;98226.91;;;0.45;76.26
5062;BME280;2351;50.812;12.872;2023-04-06T02:40:27;98215.78;;;0.42;76.41
5062;BME280;2351;50.812;12.872;2023-04-06T02:42:59;98210.78;;;0.37;76.91
5062;BME280;2351;50.812;12.872;2023-04-06T02:45:31;98211.81;;;0.33;78.73
5062;BME280;2351;50.812;12.872;2023-04-06T02:48:03;98215.91;;;0.39;77.63
5062;BME280;2351;50.812;12.872;2023-04-06T02:50:35;98213.19;;;0.42;77.74
5062;BME280;2351;50.812;12.872;2023-04-06T02:53:07;98213.06;;;0.45;77.78
5062;BME280;2351;50.812;12.872;2023-04-06T02:55:40;98208.63;;;0.47;77.13
5062;BME280;2351;50.812;12.872;2023-04-06T02:58:12;98210.38;;;0.47;76.98
5062;BME280;2351;50.812;12.872;2023-04-06T03:00:44;98207.72;;;0.48;77.49
5062;BME280;2351;50.812;12.872;2023-04-06T03:03:15;98213.78;;;0.49;77.46
5062;BME280;2351;50.812;12.872;2023-04-06T03:05:47;98215.47;;;0.50;77.45
5062;BME280;2351;50.812;12.872;2023-04-06T03:08:19;98208.53;;;0.50;77.15
5062;BME280;2351;50.812;12.872;2023-04-06T03:10:52;98211.25;;;0.47;77.27
5062;BME280;2351;50.812;12.872;2023-04-06T03:13:24;98204.34;;;0.46;77.64
5062;BME280;2351;50.812;12.872;2023-04-06T03:15:56;98203.34;;;0.49;77.82
5062;BME280;2351;50.812;12.872;2023-04-06T03:18:28;98218.03;;;0.51;77.44
5062;BME280;2351;50.812;12.872;2023-04-06T03:20:59;98205.13;;;0.48;78.08
5062;BME280;2351;50.812;12.872;2023-04-06T03:23:31;98215.66;;;0.45;77.30
5062;BME280;2351;50.812;12.872;2023-04-06T03:26:05;98210.56;;;0.42;77.33
5062;BME280;2351;50.812;12.872;2023-04-06T03:28:36;98211.59;;;0.38;77.58
5062;BME280;2351;50.812;12.872;2023-04-06T03:31:08;98216.94;;;0.35;77.27
5062;BME280;2351;50.812;12.872;2023-04-06T03:33:40;98214.41;;;0.33;77.29
5062;BME280;2351;50.812;12.872;2023-04-06T03:36:12;98215.38;;;0.31;77.67
5062;BME280;2351;50.812;12.872;2023-04-06T03:38:44;98218.09;;;0.27;77.33
5062;BME280;2351;50.812;12.872;2023-04-06T03:41:17;98215.50;;;0.27;77.64
5062;BME280;2351;50.812;12.872;2023-04-06T03:43:49;98226.81;;;0.26;77.45
5062;BME280;2351;50.812;12.872;2023-04-06T03:46:21;98223.31;;;0.27;77.54
5062;BME280;2351;50.812;12.872;2023-04-06T03:48:52;98225.06;;;0.27;77.90
5062;BME280;2351;50.812;12.872;2023-04-06T03:51:24;98230.25;;;0.27;77.99
5062;BME280;2351;50.812;12.872;2023-04-06T03:53:56;98235.47;;;0.27;78.13
5062;BME280;2351;50.812;12.872;2023-04-06T03:56:29;98228.56;;;0.26;77.83
5062;BME280;2351;50.812;12.872;2023-04-06T03:59:01;98232.06;;;0.25;77.49
5062;BME280;2351;50.812;12.872;2023-04-06T04:01:33;98236.56;;;0.21;77.66
5062;BME280;2351;50.812;12.872;2023-04-06T04:04:05;98236.63;;;0.20;78.18
5062;BME280;2351;50.812;12.872;2023-04-06T04:06:37;98245.25;;;0.22;78.26
5062;BME280;2351;50.812;12.872;2023-04-06T04:09:09;98238.25;;;0.22;78.35
5062;BME280;2351;50.812;12.872;2023-04-06T04:11:42;98237.34;;;0.23;78.35
5062;BME280;2351;50.812;12.872;2023-04-06T04:14:14;98238.97;;;0.26;77.84
5062;BME280;2351;50.812;12.872;2023-04-06T04:16:46;98238.94;;;0.27;78.49
5062;BME280;2351;50.812;12.872;2023-04-06T04:19:18;98240.56;;;0.30;78.50
5062;BME280;2351;50.812;12.872;2023-04-06T04:21:50;98236.22;;;0.31;78.57
5062;BME280;2351;50.812;12.872;2023-04-06T04:24:21;98241.44;;;0.31;78.31
5062;BME280;2351;50.812;12.872;2023-04-06T04:26:55;98241.44;;;0.31;78.12
5062;BME280;2351;50.812;12.872;2023-04-06T04:29:27;98241.44;;;0.31;77.99
5062;BME280;2351;50.812;12.872;2023-04-06T04:31:58;98239.72;;;0.29;78.50
5062;BME280;2351;50.812;12.872;2023-04-06T04:34:31;98238.94;;;0.27;78.04
5062;BME280;2351;50.812;12.872;2023-04-06T04:37:03;98248.50;;;0.27;78.16
5062;BME280;2351;50.812;12.872;2023-04-06T04:39:35;98240.78;;;0.24;78.21
5062;BME280;2351;50.812;12.872;2023-04-06T04:42:08;98235.66;;;0.22;78.23
5062;BME280;2351;50.812;12.872;2023-04-06T04:44:40;98241.78;;;0.21;78.57
5062;BME280;2351;50.812;12.872;2023-04-06T04:47:11;98243.47;;;0.22;78.24
5062;BME280;2351;50.812;12.872;2023-04-06T04:49:43;98246.97;;;0.21;78.17
5062;BME280;2351;50.812;12.872;2023-04-06T04:52:15;98246.00;;;0.24;78.35
5062;BME280;2351;50.812;12.872;2023-04-06T04:54:47;98246.78;;;0.26;78.26
5062;BME280;2351;50.812;12.872;2023-04-06T04:57:20;98250.19;;;0.28;78.59
5062;BME280;2351;50.812;12.872;2023-04-06T04:59:52;98248.44;;;0.28;78.80
5062;BME280;2351;50.812;12.872;2023-04-06T05:02:24;98254.44;;;0.31;78.35
5062;BME280;2351;50.812;12.872;2023-04-06T05:04:56;98255.22;;;0.33;78.28
5062;BME280;2351;50.812;12.872;2023-04-06T05:07:27;98256.00;;;0.35;78.31
5062;BME280;2351;50.812;12.872;2023-04-06T05:09:59;98251.56;;;0.37;79.07
5062;BME280;2351;50.812;12.872;2023-04-06T05:12:32;98254.97;;;0.39;79.07
5062;BME280;2351;50.812;12.872;2023-04-06T05:15:05;98259.22;;;0.41;78.42
5062;BME280;2351;50.812;12.872;2023-04-06T05:17:37;98255.66;;;0.44;78.64
5062;BME280;2351;50.812;12.872;2023-04-06T05:20:10;98259.88;;;0.47;78.90
5062;BME280;2351;50.812;12.872;2023-04-06T05:22:42;98261.31;;;0.54;78.76
5062;BME280;2351;50.812;12.872;2023-04-06T05:25:14;98257.63;;;0.59;79.43
5062;BME280;2351;50.812;12.872;2023-04-06T05:27:47;98263.56;;;0.63;78.98
5062;BME280;2351;50.812;12.872;2023-04-06T05:30:20;98255.56;;;0.68;79.93
5062;BME280;2351;50.812;12.872;2023-04-06T05:32:52;98261.31;;;0.76;79.73
5062;BME280;2351;50.812;12.872;2023-04-06T05:35:24;98264.44;;;0.84;79.56
5062;BME280;2351;50.812;12.872;2023-04-06T05:37:55;98262.38;;;0.93;79.86
5062;BME280;2351;50.812;12.872;2023-04-06T05:40:27;98268.16;;;0.99;79.63
5062;BME280;2351;50.812;12.872;2023-04-06T05:43:01;98262.59;;;1.09;80.12
5062;BME280;2351;50.812;12.872;2023-04-06T05:45:33;98263.03;;;1.18;80.04
5062;BME280;2351;50.812;12.872;2023-04-06T05:48:05;98258.31;;;1.27;79.65
5062;BME280;2351;50.812;12.872;2023-04-06T05:50:37;98264.09;;;1.33;79.88
5062;BME280;2351;50.812;12.872;2023-04-06T05:53:09;98264.72;;;1.40;79.93
5062;BME280;2351;50.812;12.872;2023-04-06T05:55:41;98262.72;;;1.45;79.63
5062;BME280;2351;50.812;12.872;2023-04-06T05:58:14;98263.34;;;1.52;79.57
5062;BME280;2351;50.812;12.872;2023-04-06T06:00:47;98265.72;;;1.57;79.63
5062;BME280;2351;50.812;12.872;2023-04-06T06:03:20;98269.59;;;1.67;79.79
5062;BME280;2351;50.812;12.872;2023-04-06T06:05:53;98266.91;;;1.89;80.64
5062;BME280;2351;50.812;12.872;2023-04-06T06:08:24;98266.03;;;2.08;80.38
5062;BME280;2351;50.812;12.872;2023-04-06T06:10:56;98260.97;;;2.24;80.52
5062;BME280;2351;50.812;12.872;2023-04-06T06:13:30;98261.41;;;2.32;80.38
5062;BME280;2351;50.812;12.872;2023-04-06T06:16:01;98264.53;;;2.40;80.59
5062;BME280;2351;50.812;12.872;2023-04-06T06:18:35;98272.84;;;2.49;79.99
5062;BME280;2351;50.812;12.872;2023-04-06T06:21:07;98268.19;;;2.55;80.23
5062;BME280;2351;50.812;12.872;2023-04-06T06:23:39;98265.19;;;2.63;79.85
5062;BME280;2351;50.812;12.872;2023-04-06T06:26:11;98271.69;;;2.74;80.23
5062;BME280;2351;50.812;12.872;2023-04-06T06:28:44;98271.28;;;2.81;80.18
5062;BME280;2351;50.812;12.872;2023-04-06T06:31:16;98267.13;;;2.95;80.21
5062;BME280;2351;50.812;12.872;2023-04-06T06:33:50;98269.84;;;3.11;80.35
5062;BME280;2351;50.812;12.872;2023-04-06T06:36:22;98268.06;;;3.29;79.92
5062;BME280;2351;50.812;12.872;2023-04-06T06:38:54;98267.13;;;3.47;80.27
5062;BME280;2351;50.812;12.872;2023-04-06T06:41:26;98273.13;;;3.66;80.19
5062;BME280;2351;50.812;12.872;2023-04-06T06:43:59;98273.28;;;3.80;79.81
5062;BME280;2351;50.812;12.872;2023-04-06T06:46:31;98271.53;;;3.97;79.60
5062;BME280;2351;50.812;12.872;2023-04-06T06:49:03;98266.81;;;4.19;79.47
5062;BME280;2351;50.812;12.872;2023-04-06T06:51:35;98269.31;;;4.53;79.21
5062;BME280;2351;50.812;12.872;2023-04-06T06:54:07;98260.72;;;4.81;79.08
5062;BME280;2351;50.812;12.872;2023-04-06T06:56:39;98274.47;;;5.01;78.85
5062;BME280;2351;50.812;12.872;2023-04-06T06:59:12;98272.44;;;5.06;77.61
5062;BME280;2351;50.812;12.872;2023-04-06T07:01:44;98275.47;;;5.15;77.61
5062;BME280;2351;50.812;12.872;2023-04-06T07:04:15;98274.69;;;5.72;78.16
5062;BME280;2351;50.812;12.872;2023-04-06T07:06:47;98273.16;;;6.26;77.65
5062;BME280;2351;50.812;12.872;2023-04-06T07:09:19;98263.50;;;7.34;77.26
5062;BME280;2351;50.812;12.872;2023-04-06T07:11:51;98262.56;;;7.74;75.85
5062;BME280;2351;50.812;12.872;2023-04-06T07:14:24;98261.72;;;7.74;73.68
5062;BME280;2351;50.812;12.872;2023-04-06T07:16:56;98265.09;;;7.63;72.77
5062;BME280;2351;50.812;12.872;2023-04-06T07:19:28;98260.25;;;7.57;68.26
5062;BME280;2351;50.812;12.872;2023-04-06T07:22:00;98258.97;;;9.11;72.58
5062;BME280;2351;50.812;12.872;2023-04-06T07:24:32;98249.28;;;10.92;62.68
5062;BME280;2351;50.812;12.872;2023-04-06T07:27:04;98257.72;;;11.40;53.77
5062;BME280;2351;50.812;12.872;2023-04-06T07:29:37;98253.50;;;11.16;54.95
5062;BME280;2351;50.812;12.872;2023-04-06T07:32:09;98252.66;;;10.83;50.19
5062;BME280;2351;50.812;12.872;2023-04-06T07:34:41;98262.06;;;10.43;48.16
5062;BME280;2351;50.812;12.872;2023-04-06T07:37:15;98260.91;;;10.02;41.96
5062;BME280;2351;50.812;12.872;2023-04-06T07:39:47;98257.97;;;9.48;46.23
5062;BME280;2351;50.812;12.872;2023-04-06T07:42:19;98256.66;;;9.54;47.91
5062;BME280;2351;50.812;12.872;2023-04-06T07:44:52;98257.84;;;10.18;49.60
5062;BME280;2351;50.812;12.872;2023-04-06T07:47:24;98254.03;;;10.77;49.20
5062;BME280;2351;50.812;12.872;2023-04-06T07:49:56;98261.00;;;10.78;49.22
5062;BME280;2351;50.812;12.872;2023-04-06T07:52:28;98254.28;;;11.28;49.10
5062;BME280;2351;50.812;12.872;2023-04-06T07:55:00;98255.47;;;11.35;48.17
5062;BME280;2351;50.812;12.872;2023-04-06T07:57:32;98253.94;;;11.00;47.37
5062;BME280;2351;50.812;12.872;2023-04-06T08:00:07;98253.34;;;10.64;46.86
5062;BME280;2351;50.812;12.872;2023-04-06T08:02:39;98255.34;;;10.39;46.86
5062;BME280;2351;50.812;12.872;2023-04-06T08:05:11;98252.31;;;10.32;45.17
5062;BME280;2351;50.812;12.872;2023-04-06T08:07:43;98257.03;;;10.17;45.76
5062;BME280;2351;50.812;12.872;2023-04-06T08:10:15;98257.75;;;10.19;42.66
5062;BME280;2351;50.812;12.872;2023-04-06T08:12:47;98261.47;;;10.39;44.02
5062;BME280;2351;50.812;12.872;2023-04-06T08:15:20;98262.50;;;10.60;44.53
5062;BME280;2351;50.812;12.872;2023-04-06T08:17:52;98257.72;;;11.40;44.12
5062;BME280;2351;50.812;12.872;2023-04-06T08:20:27;98257.50;;;11.53;42.92
5062;BME280;2351;50.812;12.872;2023-04-06T08:22:59;98254.31;;;11.59;43.09
5062;BME280;2351;50.812;12.872;2023-04-06T08:25:31;98256.13;;;11.80;43.03
5062;BME280;2351;50.812;12.872;2023-04-06T08:28:03;98262.41;;;12.10;42.44
5062;BME280;2351;50.812;12.872;2023-04-06T08:30:39;98257.69;;;12.13;35.50
5062;BME280;2351;50.812;12.872;2023-04-06T08:33:11;98252.09;;;12.26;38.93
5062;BME280;2351;50.812;12.872;2023-04-06T08:35:43;98245.72;;;12.39;37.08
5062;BME280;2351;50.812;12.872;2023-04-06T08:38:15;98258.88;;;12.50;36.22
5062;BME280;2351;50.812;12.872;2023-04-06T08:40:46;98247.47;;;12.99;35.21
5062;BME280;2351;50.812;12.872;2023-04-06T08:43:22;98245.34;;;13.51;31.33
5062;BME280;2351;50.812;12.872;2023-04-06T08:45:56;98247.06;;;13.80;34.34
5062;BME280;2351;50.812;12.872;2023-04-06T08:48:29;98246.03;;;14.01;34.94
5062;BME280;2351;50.812;12.872;2023-04-06T08:51:02;98237.66;;;14.88;26.64
5062;BME280;2351;50.812;12.872;2023-04-06T08:53:34;98240.03;;;13.89;28.21
5062;BME280;2351;50.812;12.872;2023-04-06T08:56:07;98234.81;;;13.50;29.52
5062;BME280;2351;50.812;12.872;2023-04-06T08:58:41;98234.59;;;12.84;28.69
5062;BME280;2351;50.812;12.872;2023-04-06T09:01:17;98236.34;;;12.34;29.21
5062;BME280;2351;50.812;12.872;2023-04-06T09:03:49;98234.69;;;11.62;29.75
5062;BME280;2351;50.812;12.872;2023-04-06T09:06:22;98245.81;;;11.13;29.87
5062;BME280;2351;50.812;12.872;2023-04-06T09:08:54;98241.88;;;10.75;30.55
5062;BME280;2351;50.812;12.872;2023-04-06T09:11:27;98246.16;;;10.54;29.64
5062;BME280;2351;50.812;12.872;2023-04-06T09:13:58;98252.25;;;10.00;29.10
5062;BME280;2351;50.812;12.872;2023-04-06T09:16:38;98241.44;;;9.80;30.28
5062;BME280;2351;50.812;12.872;2023-04-06T09:19:11;98247.78;;;9.77;30.48
5062;BME280;2351;50.812;12.872;2023-04-06T09:21:43;98247.41;;;9.82;31.27
5062;BME280;2351;50.812;12.872;2023-04-06T09:24:15;98242.50;;;9.77;31.28
5062;BME280;2351;50.812;12.872;2023-04-06T09:26:51;98240.69;;;9.89;31.36
5062;BME280;2351;50.812;12.872;2023-04-06T09:29:23;98241.66;;;9.88;31.08
5062;BME280;2351;50.812;12.872;2023-04-06T09:32:03;98234.44;;;9.90;31.71
5062;BME280;2351;50.812;12.872;2023-04-06T09:34:38;98238.50;;;10.06;31.25
5062;BME280;2351;50.812;12.872;2023-04-06T09:37:13;98245.03;;;9.90;31.25
5062;BME280;2351;50.812;12.872;2023-04-06T09:39:45;98242.38;;;9.68;31.30
5062;BME280;2351;50.812;12.872;2023-04-06T09:42:23;98235.31;;;9.10;31.39
5062;BME280;2351;50.812;12.872;2023-04-06T09:44:56;98241.16;;;8.66;32.58
5062;BME280;2351;50.812;12.872;2023-04-06T09:47:30;98242.41;;;8.36;32.55
5062;BME280;2351;50.812;12.872;2023-04-06T09:50:03;98237.84;;;8.51;33.57
5062;BME280;2351;50.812;12.872;2023-04-06T09:52:41;98240.97;;;8.81;34.08
5062;BME280;2351;50.812;12.872;2023-04-06T09:55:17;98240.59;;;9.10;34.11
5062;BME280;2351;50.812;12.872;2023-04-06T09:57:57;98236.22;;;9.56;32.58
5062;BME280;2351;50.812;12.872;2023-04-06T10:00:40;98232.53;;;9.58;33.16
5062;BME280;2351;50.812;12.872;2023-04-06T10:03:20;98230.94;;;9.56;32.43
5062;BME280;2351;50.812;12.872;2023-04-06T10:05:57;98229.75;;;9.71;32.88
5062;BME280;2351;50.812;12.872;2023-04-06T10:08:33;98230.47;;;10.07;32.46
5062;BME280;2351;50.812;12.872;2023-04-06T10:11:06;98214.78;;;10.50;33.32
5062;BME280;2351;50.812;12.872;2023-04-06T10:13:39;98214.66;;;11.05;33.53
5062;BME280;2351;50.812;12.872;2023-04-06T10:16:13;98217.09;;;11.39;33.90
5062;BME280;2351;50.812;12.872;2023-04-06T10:18:52;98214.13;;;11.54;32.44
5062;BME280;2351;50.812;12.872;2023-04-06T10:21:27;98215.16;;;11.41;32.15
5062;BME280;2351;50.812;12.872;2023-04-06T10:24:02;98215.25;;;11.61;32.75
5062;BME280;2351;50.812;12.872;2023-04-06T10:26:40;98207.44;;;11.59;30.11
5062;BME280;2351;50.812;12.872;2023-04-06T10:29:12;98208.94;;;11.52;31.55
5062;BME280;2351;50.812;12.872;2023-04-06T10:31:43;98206.84;;;11.46;30.77
5062;BME280;2351;50.812;12.872;2023-04-06T10:34:17;98200.19;;;11.09;29.22
5062;BME280;2351;50.812;12.872;2023-04-06T10:36:48;98205.41;;;10.34;30.54
5062;BME280;2351;50.812;12.872;2023-04-06T10:39:24;98204.88;;;9.85;31.88
5062;BME280;2351;50.812;12.872;2023-04-06T10:42:06;98197.56;;;9.77;30.96
5062;BME280;2351;50.812;12.872;2023-04-06T10:44:42;98190.22;;;9.24;32.39
5062;BME280;2351;50.812;12.872;2023-04-06T10:47:17;98197.56;;;9.55;33.09
5062;BME280;2351;50.812;12.872;2023-04-06T10:49:51;98196.06;;;10.19;33.32
5062;BME280;2351;50.812;12.872;2023-04-06T10:52:23;98180.81;;;10.88;33.44
5062;BME280;2351;50.812;12.872;2023-04-06T10:54:55;98188.66;;;11.41;33.31
5062;BME280;2351;50.812;12.872;2023-04-06T10:57:28;98186.63;;;11.86;32.54
5062;BME280;2351;50.812;12.872;2023-04-06T11:00:01;98176.19;;;11.63;30.01
5062;BME280;2351;50.812;12.872;2023-04-06T11:02:33;98170.56;;;11.78;30.87
5062;BME280;2351;50.812;12.872;2023-04-06T11:05:07;98173.88;;;12.11;31.38
5062;BME280;2351;50.812;12.872;2023-04-06T11:07:40;98162.63;;;11.87;29.17
5062;BME280;2351;50.812;12.872;2023-04-06T11:10:20;98166.88;;;12.10;30.77
5062;BME280;2351;50.812;12.872;2023-04-06T11:12:53;98163.03;;;12.33;30.58
5062;BME280;2351;50.812;12.872;2023-04-06T11:15:26;98165.84;;;12.52;30.19
5062;BME280;2351;50.812;12.872;2023-04-06T11:17:57;98164.69;;;12.84;30.60
5062;BME280;2351;50.812;12.872;2023-04-06T11:20:31;98163.22;;;13.29;30.64
5062;BME280;2351;50.812;12.872;2023-04-06T11:23:03;98160.09;;;12.56;26.24
5062;BME280;2351;50.812;12.872;2023-04-06T11:25:34;98160.63;;;12.20;28.69
5062;BME280;2351;50.812;12.872;2023-04-06T11:28:06;98160.09;;;12.37;29.07
5062;BME280;2351;50.812;12.872;2023-04-06T11:30:38;98161.06;;;12.35;29.25
5062;BME280;2351;50.812;12.872;2023-04-06T11:33:10;98158.56;;;12.54;29.44
5062;BME280;2351;50.812;12.872;2023-04-06T11:35:43;98157.16;;;12.69;29.38
5062;BME280;2351;50.812;12.872;2023-04-06T11:38:18;98159.97;;;12.77;29.53
5062;BME280;2351;50.812;12.872;2023-04-06T11:40:52;98149.69;;;13.02;30.13
5062;BME280;2351;50.812;12.872;2023-04-06T11:43:27;98151.66;;;13.10;29.29
5062;BME280;2351;50.812;12.872;2023-04-06T11:46:00;98149.94;;;13.29;29.97
5062;BME280;2351;50.812;12.872;2023-04-06T11:48:43;98134.06;;;12.99;26.44
5062;BME280;2351;50.812;12.872;2023-04-06T11:51:23;98131.88;;;12.55;27.08
5062;BME280;2351;50.812;12.872;2023-04-06T11:53:55;98134.63;;;12.04;27.37
5062;BME280;2351;50.812;12.872;2023-04-06T11:56:28;98132.56;;;12.18;28.66
5062;BME280;2351;50.812;12.872;2023-04-06T11:59:00;98132.84;;;12.74;29.03
5062;BME280;2351;50.812;12.872;2023-04-06T12:01:32;98132.50;;;13.06;28.93
5062;BME280;2351;50.812;12.872;2023-04-06T12:04:04;98131.69;;;12.96;27.87
5062;BME280;2351;50.812;12.872;2023-04-06T12:06:38;98130.75;;;12.48;26.23
5062;BME280;2351;50.812;12.872;2023-04-06T12:09:10;98116.63;;;12.08;27.59
5062;BME280;2351;50.812;12.872;2023-04-06T12:11:42;98125.03;;;12.43;28.45
5062;BME280;2351;50.812;12.872;2023-04-06T12:14:14;98113.22;;;12.94;29.02
5062;BME280;2351;50.812;12.872;2023-04-06T12:16:46;98115.69;;;13.25;28.61
5062;BME280;2351;50.812;12.872;2023-04-06T12:19:18;98110.19;;;13.27;28.64
5062;BME280;2351;50.812;12.872;2023-04-06T12:21:51;98110.03;;;13.48;29.14
5062;BME280;2351;50.812;12.872;2023-04-06T12:24:24;98110.78;;;13.31;27.38
5062;BME280;2351;50.812;12.872;2023-04-06T12:26:56;98107.50;;;12.99;27.22
5062;BME280;2351;50.812;12.872;2023-04-06T12:29:28;98110.84;;;12.91;28.45
5062;BME280;2351;50.812;12.872;2023-04-06T12:32:00;98105.06;;;12.58;28.36
5062;BME280;2351;50.812;12.872;2023-04-06T12:34:32;98097.88;;;11.90;27.97
5062;BME280;2351;50.812;12.872;2023-04-06T12:37:06;98105.41;;;11.44;29.87
5062;BME280;2351;50.812;12.872;2023-04-06T12:39:38;98107.13;;;11.55;29.39
5062;BME280;2351;50.812;12.872;2023-04-06T12:42:10;98098.06;;;12.08;30.56
5062;BME280;2351;50.812;12.872;2023-04-06T12:44:43;98101.13;;;12.03;29.18
5062;BME280;2351;50.812;12.872;2023-04-06T12:47:14;98097.78;;;11.60;28.13
5062;BME280;2351;50.812;12.872;2023-04-06T12:49:47;98098.66;;;11.71;29.43
5062;BME280;2351;50.812;12.872;2023-04-06T12:52:20;98084.25;;;12.24;29.72
5062;BME280;2351;50.812;12.872;2023-04-06T12:54:52;98084.50;;;12.60;29.62
5062;BME280;2351;50.812;12.872;2023-04-06T12:57:24;98085.63;;;13.15;29.95
5062;BME280;2351;50.812;12.872;2023-04-06T12:59:56;98083.97;;;13.52;29.56
5062;BME280;2351;50.812;12.872;2023-04-06T13:02:29;98073.63;;;13.77;29.50
5062;BME280;2351;50.812;12.872;2023-04-06T13:05:01;98085.19;;;13.58;27.78
5062;BME280;2351;50.812;12.872;2023-04-06T13:07:35;98080.91;;;13.75;28.33
5062;BME280;2351;50.812;12.872;2023-04-06T13:10:07;98077.19;;;13.30;25.04
5062;BME280;2351;50.812;12.872;2023-04-06T13:12:39;98079.63;;;13.13;27.04
5062;BME280;2351;50.812;12.872;2023-04-06T13:15:11;98076.59;;;13.36;27.62
5062;BME280;2351;50.812;12.872;2023-04-06T13:17:43;98076.34;;;13.67;27.54
5062;BME280;2351;50.812;12.872;2023-04-06T13:20:15;98073.31;;;13.14;27.08
5062;BME280;2351;50.812;12.872;2023-04-06T13:22:48;98070.53;;;13.53;27.58
5062;BME280;2351;50.812;12.872;2023-04-06T13:25:20;98067.25;;;13.88;27.81
5062;BME280;2351;50.812;12.872;2023-04-06T13:27:52;98062.00;;;14.14;27.80
5062;BME280;2351;50.812;12.872;2023-04-06T13:30:24;98059.88;;;14.36;27.59
5062;BME280;2351;50.812;12.872;2023-04-06T13:32:56;98054.31;;;14.47;27.89
5062;BME280;2351;50.812;12.872;2023-04-06T13:35:28;98061.06;;;14.59;27.74
5062;BME280;2351;50.812;12.872;2023-04-06T13:38:01;98053.38;;;14.74;27.69
5062;BME280;2351;50.812;12.872;2023-04-06T13:40:33;98047.59;;;14.61;26.52
5062;BME280;2351;50.812;12.872;2023-04-06T13:43:05;98050.53;;;14.13;25.28
5062;BME280;2351;50.812;12.872;2023-04-06T13:45:37;98048.56;;;14.15;27.20